Time;durP1;ratioP1;P1;durP2;ratioP2;P2;SDS_P1;SDS_P2;PMS_P1;PMS_P2;Temp;Humidity;BMP_temperature;BMP_pressure;BME280_temperature;BME280_humidity;BME280_pressure;Samples;Min_cycle;Max_cycle;Signal;HPM_P1;HPM_P2
2023/02/25 00:03:58;;;;;;;2.63;0.52;;;;;;;7.13;61.60;99182.28;12789041;23;20421;-63
2023/02/25 00:09:00;;;;;;;6.53;2.08;;;;;;;7.14;61.98;99173.25;12769195;23;20068;-63
2023/02/25 00:14:02;;;;;;;8.73;1.00;;;;;;;7.19;62.32;99186.91;12752563;23;20029;-64
2023/02/25 00:19:03;;;;;;;1.33;0.63;;;;;;;7.16;62.24;99200.59;12750550;23;20330;-65
2023/02/25 00:24:05;;;;;;;5.70;0.68;;;;;;;7.10;61.71;99204.84;12750474;23;20078;-64
2023/02/25 00:29:17;;;;;;;4.47;0.85;;;;;;;7.06;61.20;99202.72;12736320;23;20021;-64
2023/02/25 00:34:20;;;;;;;7.75;1.27;;;;;;;7.00;62.25;99204.28;12705432;23;20025;-64
2023/02/25 00:39:22;;;;;;;4.55;0.85;;;;;;;7.09;61.73;99208.53;12718831;23;20022;-64
2023/02/25 00:44:24;;;;;;;6.20;0.88;;;;;;;6.98;61.77;99213.50;12718036;23;20482;-65
2023/02/25 00:49:25;;;;;;;4.75;0.85;;;;;;;6.95;61.59;99207.50;12718720;23;20324;-65
2023/02/25 00:54:33;;;;;;;12.98;1.13;;;;;;;7.00;61.88;99203.44;12718404;23;20488;-65
2023/02/25 00:59:35;;;;;;;7.20;1.35;;;;;;;7.08;60.49;99201.53;12716618;23;20066;-63
2023/02/25 01:04:36;;;;;;;7.57;1.27;;;;;;;7.05;60.24;99225.94;12717477;23;20603;-65
2023/02/25 01:09:38;;;;;;;5.90;1.52;;;;;;;7.12;60.41;99205.47;12718338;23;20017;-64
2023/02/25 01:14:39;;;;;;;6.00;1.85;;;;;;;7.15;59.75;99215.00;12717763;23;20032;-66
2023/02/25 01:19:41;;;;;;;7.82;1.55;;;;;;;7.17;59.64;99210.31;12716553;23;20029;-63
2023/02/25 01:24:42;;;;;;;5.15;1.52;;;;;;;7.18;60.04;99221.81;12717985;23;20493;-64
2023/02/25 01:29:44;;;;;;;2.50;1.15;;;;;;;7.14;60.33;99207.97;12715898;23;20056;-65
2023/02/25 01:34:45;;;;;;;6.97;1.50;;;;;;;7.27;60.00;99205.50;12718337;23;20033;-65
2023/02/25 01:39:46;;;;;;;7.07;1.85;;;;;;;7.43;59.19;99209.84;12719368;23;20072;-64
2023/02/25 01:45:19;;;;;;;9.13;2.10;;;;;;;7.30;60.03;99201.63;12716699;23;20493;-65
2023/02/25 01:50:25;;;;;;;5.90;1.52;;;;;;;7.28;59.64;99203.66;12717849;23;20025;-65
2023/02/25 01:55:27;;;;;;;2.73;1.37;;;;;;;7.08;61.16;99222.06;12718606;23;20022;-63
2023/02/25 02:00:31;;;;;;;8.93;1.40;;;;;;;6.99;60.71;99225.81;12720440;23;20028;-61
2023/02/25 02:05:45;;;;;;;9.50;2.25;;;;;;;7.07;60.55;99226.59;12723960;23;20029;-59
2023/02/25 02:10:46;;;;;;;5.45;1.30;;;;;;;7.07;59.86;99223.06;12777899;23;20032;-61
2023/02/25 02:16:09;;;;;;;5.78;1.38;;;;;;;7.02;58.92;99223.63;12784922;23;20401;-61
2023/02/25 02:21:28;;;;;;;9.10;1.00;;;;;;;7.13;59.39;99225.88;12784247;23;20459;-59
2023/02/25 02:26:48;;;;;;;5.90;0.88;;;;;;;6.95;58.35;99215.50;12783680;23;20088;-63
2023/02/25 02:32:09;;;;;;;8.68;1.13;;;;;;;6.98;58.35;99218.84;12783761;23;20098;-59
2023/02/25 02:37:29;;;;;;;6.90;0.80;;;;;;;6.95;57.74;99222.66;12784163;23;20025;-60
2023/02/25 02:42:42;;;;;;;4.53;1.50;;;;;;;6.98;57.03;99213.50;12784165;23;20075;-63
2023/02/25 02:47:53;;;;;;;4.80;0.85;;;;;;;6.89;57.97;99224.25;12783877;23;20021;-59
2023/02/25 02:52:58;;;;;;;10.48;1.10;;;;;;;6.89;57.16;99212.72;12784531;23;20088;-61
2023/02/25 02:58:05;;;;;;;5.93;0.70;;;;;;;6.92;57.52;99213.19;12784534;23;20025;-60
2023/02/25 03:03:13;;;;;;;7.75;1.27;;;;;;;6.92;57.67;99226.53;12757203;23;20025;-60
2023/02/25 03:08:22;;;;;;;5.40;1.10;;;;;;;6.84;56.60;99221.28;12782471;23;20025;-59
2023/02/25 03:13:23;;;;;;;6.47;1.52;;;;;;;6.84;57.07;99229.28;12785197;23;20088;-59
2023/02/25 03:18:34;;;;;;;8.27;1.27;;;;;;;6.86;56.97;99237.94;12782814;23;20021;-61
2023/02/25 03:23:41;;;;;;;4.50;1.38;;;;;;;6.89;56.45;99237.59;12783854;23;20023;-60
2023/02/25 03:28:44;;;;;;;9.15;0.90;;;;;;;6.79;55.60;99236.19;12781208;23;20025;-61
2023/02/25 03:34:09;;;;;;;6.68;0.70;;;;;;;6.79;56.26;99249.53;12782472;23;20016;-62
2023/02/25 03:39:20;;;;;;;7.20;0.90;;;;;;;6.82;56.18;99236.66;12754440;23;20461;-62
2023/02/25 03:44:27;;;;;;;5.50;0.93;;;;;;;6.81;56.53;99239.50;12783693;23;20027;-63
2023/02/25 03:49:39;;;;;;;10.13;2.00;;;;;;;6.86;56.14;99245.16;12780818;23;20021;-60
2023/02/25 03:54:41;;;;;;;9.35;1.38;;;;;;;6.81;56.92;99263.53;12782109;23;20454;-62
2023/02/25 03:59:42;;;;;;;6.03;0.95;;;;;;;6.81;57.50;99255.53;12781257;23;20476;-60
2023/02/25 04:04:43;;;;;;;4.50;0.93;;;;;;;6.67;57.77;99263.28;12781435;23;20057;-60
2023/02/25 04:09:45;;;;;;;5.68;1.17;;;;;;;6.69;57.76;99257.78;12781758;23;20469;-60
2023/02/25 04:14:46;;;;;;;8.73;1.95;;;;;;;6.76;58.00;99253.41;12783616;23;20076;-61
2023/02/25 04:19:48;;;;;;;7.82;1.17;;;;;;;6.62;57.47;99257.66;12781506;23;20020;-59
2023/02/25 04:24:49;;;;;;;8.32;2.35;;;;;;;6.61;57.95;99263.19;12781572;23;20024;-62
2023/02/25 04:29:50;;;;;;;10.20;1.95;;;;;;;6.60;59.02;99265.03;12753103;23;20040;-60
2023/02/25 04:34:52;;;;;;;7.65;2.03;;;;;;;6.52;58.42;99249.06;12782807;23;20028;-60
2023/02/25 04:39:53;;;;;;;14.68;1.80;;;;;;;6.46;58.90;99242.59;12780841;23;20025;-60
2023/02/25 04:44:55;;;;;;;9.40;1.80;;;;;;;6.34;59.25;99255.50;12781537;23;20025;-60
2023/02/25 04:49:56;;;;;;;5.47;2.03;;;;;;;6.27;59.74;99253.72;12781046;23;20029;-60
2023/02/25 04:54:58;;;;;;;5.85;2.33;;;;;;;6.17;59.75;99266.44;12781841;23;20021;-60
2023/02/25 04:59:59;;;;;;;10.13;1.95;;;;;;;6.15;60.38;99272.78;12780386;23;20397;-60
2023/02/25 05:05:00;;;;;;;3.92;1.73;;;;;;;6.17;60.69;99267.28;12781941;23;20088;-61
2023/02/25 05:10:03;;;;;;;12.15;1.98;;;;;;;6.08;61.04;99257.63;12779487;23;20021;-60
2023/02/25 05:15:07;;;;;;;8.02;1.70;;;;;;;6.03;60.95;99252.81;12777939;23;20017;-61
2023/02/25 05:20:11;;;;;;;8.30;2.20;;;;;;;5.97;60.93;99250.03;12781167;23;20103;-59
2023/02/25 05:25:13;;;;;;;6.35;1.38;;;;;;;5.95;61.58;99260.88;12778322;23;20036;-59
2023/02/25 05:30:15;;;;;;;9.43;2.13;;;;;;;5.97;61.79;99276.72;12777028;23;20021;-59
2023/02/25 05:35:17;;;;;;;9.18;1.98;;;;;;;5.93;61.19;99263.69;12754444;23;20307;-62
2023/02/25 05:40:18;;;;;;;7.18;1.30;;;;;;;5.94;61.80;99253.81;12752461;23;20024;-61
2023/02/25 05:45:19;;;;;;;6.72;1.60;;;;;;;5.88;62.22;99260.69;12780154;23;20021;-59
2023/02/25 05:50:21;;;;;;;8.45;1.98;;;;;;;5.85;62.62;99252.22;12779494;23;20492;-64
2023/02/25 05:55:23;;;;;;;5.28;2.00;;;;;;;5.88;62.66;99254.53;12779525;23;20335;-61
2023/02/25 06:00:24;;;;;;;5.25;2.28;;;;;;;5.84;62.35;99254.03;12777584;23;20028;-60
2023/02/25 06:05:25;;;;;;;4.75;2.20;;;;;;;5.84;63.07;99261.22;12779256;23;20029;-60
2023/02/25 06:10:27;;;;;;;7.43;2.60;;;;;;;5.83;63.07;99259.56;12778136;23;20036;-61
2023/02/25 06:15:28;;;;;;;7.93;2.63;;;;;;;5.85;63.02;99258.38;12780465;23;20530;-60
2023/02/25 06:20:30;;;;;;;5.82;2.10;;;;;;;5.83;62.97;99273.72;12750234;23;20028;-58
2023/02/25 06:25:32;;;;;;;8.02;2.78;;;;;;;5.87;63.14;99276.88;12772861;23;20032;-61
2023/02/25 06:30:33;;;;;;;8.40;1.60;;;;;;;5.80;63.20;99267.91;12773299;23;20537;-60
2023/02/25 06:35:34;;;;;;;11.95;2.97;;;;;;;5.82;63.19;99274.72;12775074;23;20021;-59
2023/02/25 06:40:37;;;;;;;12.75;2.88;;;;;;;5.83;63.61;99268.38;12747361;23;20144;-60
2023/02/25 06:45:38;;;;;;;8.90;2.25;;;;;;;5.89;63.64;99275.69;12778786;23;20025;-60
2023/02/25 06:50:40;;;;;;;6.57;1.50;;;;;;;5.92;63.28;99280.69;12777425;23;20028;-58
2023/02/25 06:55:42;;;;;;;2.90;0.82;;;;;;;5.98;62.99;99299.69;12778210;23;20032;-60
2023/02/25 07:00:43;;;;;;;7.88;2.00;;;;;;;5.98;62.68;99291.69;12775591;23;20034;-60
2023/02/25 07:05:45;;;;;;;7.47;2.20;;;;;;;6.03;62.46;99294.69;12777661;23;20469;-59
2023/02/25 07:10:46;;;;;;;17.95;1.60;;;;;;;6.04;62.65;99302.53;12768997;23;20032;-60
2023/02/25 07:15:48;;;;;;;5.82;2.22;;;;;;;6.08;62.53;99293.16;12775791;23;20021;-63
2023/02/25 07:20:49;;;;;;;3.53;1.00;;;;;;;6.10;63.17;99299.16;12789596;23;20131;-65
2023/02/25 07:25:50;;;;;;;7.95;2.72;;;;;;;6.16;62.55;99305.63;12818789;23;20046;-64
2023/02/25 07:30:52;;;;;;;9.32;3.92;;;;;;;6.20;62.68;99311.44;12819886;23;20017;-64
2023/02/25 07:35:54;;;;;;;10.57;2.42;;;;;;;6.17;62.44;99314.47;12819925;23;20032;-61
2023/02/25 07:40:55;;;;;;;5.72;2.85;;;;;;;6.19;63.00;99313.28;12816716;23;20673;-64
2023/02/25 07:45:57;;;;;;;5.30;2.45;;;;;;;6.30;62.45;99323.59;12815942;23;20083;-63
2023/02/25 07:51:17;;;;;;;13.18;2.85;;;;;;;6.37;62.17;99322.88;12808744;23;20032;-62
2023/02/25 07:56:20;;;;;;;10.77;3.13;;;;;;;6.40;61.88;99336.72;12806826;23;20017;-64
2023/02/25 08:01:28;;;;;;;6.05;2.85;;;;;;;6.47;62.85;99344.84;12811358;23;20032;-64
2023/02/25 08:06:30;;;;;;;5.78;2.08;;;;;;;6.53;61.85;99344.16;12789767;23;20017;-65
2023/02/25 08:11:32;;;;;;;5.97;2.58;;;;;;;6.48;62.21;99335.84;12785994;23;20040;-63
2023/02/25 08:16:33;;;;;;;10.15;4.25;;;;;;;6.62;62.40;99331.59;12809999;23;20073;-63
2023/02/25 08:21:36;;;;;;;12.88;4.00;;;;;;;6.72;62.72;99341.03;12791716;23;20032;-64
2023/02/25 08:26:37;;;;;;;6.35;2.38;;;;;;;6.79;61.72;99340.34;12790434;23;20045;-66
2023/02/25 08:31:39;;;;;;;9.40;2.95;;;;;;;6.71;61.17;99342.06;12815743;23;20077;-62
2023/02/25 08:36:40;;;;;;;6.13;3.15;;;;;;;6.86;61.01;99346.66;12811355;23;20089;-64
2023/02/25 08:41:43;;;;;;;9.25;3.20;;;;;;;6.90;60.69;99342.63;12815260;23;20040;-63
2023/02/25 08:46:44;;;;;;;8.20;2.72;;;;;;;6.79;60.67;99351.84;12816832;23;20081;-66
2023/02/25 08:51:49;;;;;;;8.80;1.65;;;;;;;6.72;60.08;99346.38;12825090;23;20032;-65
2023/02/25 08:56:51;;;;;;;7.03;2.28;;;;;;;6.80;59.58;99336.69;12794487;23;20029;-65
2023/02/25 09:01:53;;;;;;;10.35;2.80;;;;;;;6.80;59.20;99348.19;12802889;23;20052;-65
2023/02/25 09:06:57;;;;;;;6.93;2.28;;;;;;;6.89;58.93;99347.13;12828256;23;20024;-65
2023/02/25 09:11:59;;;;;;;3.92;1.08;;;;;;;7.07;58.35;99359.34;12829920;23;20025;-66
2023/02/25 09:17:01;;;;;;;7.88;2.88;;;;;;;7.05;58.69;99358.69;12827765;23;20033;-65
2023/02/25 09:22:07;;;;;;;6.43;2.00;;;;;;;6.98;57.39;99358.59;12830807;23;20025;-65
2023/02/25 09:27:09;;;;;;;4.68;1.60;;;;;;;7.16;57.80;99358.28;12803275;23;20025;-66
2023/02/25 09:32:17;;;;;;;7.05;1.90;;;;;;;7.29;56.75;99363.03;12837688;23;20015;-66
2023/02/25 09:37:18;;;;;;;7.45;1.77;;;;;;;7.61;55.87;99353.09;12833085;23;20346;-64
2023/02/25 09:42:23;;;;;;;8.43;2.17;;;;;;;7.65;54.60;99344.50;12837067;23;20077;-66
2023/02/25 09:47:36;;;;;;;5.00;1.15;;;;;;;7.76;54.26;99351.28;12811759;23;20021;-65
2023/02/25 09:52:45;;;;;;;13.77;2.35;;;;;;;7.62;54.01;99342.22;12834634;23;20005;-63
2023/02/25 09:58:12;;;;;;;2.15;0.50;;;;;;;7.63;52.98;99346.53;12812588;23;20076;-63
2023/02/25 10:14:19;;;;;;;6.87;1.90;;;;;;;8.08;53.11;99368.00;12562616;23;20016;-63
2023/02/25 10:19:41;;;;;;;5.97;2.17;;;;;;;7.84;52.72;99369.06;12694236;23;20005;-63
2023/02/25 10:24:47;;;;;;;12.10;1.73;;;;;;;7.80;52.56;99362.41;12721372;23;20006;-61
2023/02/25 10:29:57;;;;;;;6.97;1.40;;;;;;;7.87;52.42;99358.00;12720445;23;20020;-62
2023/02/25 10:35:10;;;;;;;2.25;1.45;;;;;;;8.25;52.10;99372.13;12720194;23;20050;-62
2023/02/25 10:40:17;;;;;;;5.53;1.52;;;;;;;8.25;52.37;99360.59;12722002;23;20041;-63
2023/02/25 10:45:22;;;;;;;;;;;;;;;8.19;52.86;99388.09;12718622;23;20022;-63
2023/02/25 10:50:27;;;;;;;3.95;1.00;;;;;;;8.17;52.88;99401.66;12717875;23;19925;-63
2023/02/25 10:55:50;;;;;;;6.72;1.00;;;;;;;7.81;54.22;99386.31;12718236;23;20082;-63
2023/02/25 11:01:15;;;;;;;5.38;1.40;;;;;;;7.88;54.46;99394.47;12716457;23;20013;-63
2023/02/25 11:06:22;;;;;;;6.65;2.03;;;;;;;7.89;54.65;99398.78;12717739;23;20041;-63
2023/02/25 11:11:37;;;;;;;9.13;2.20;;;;;;;8.07;54.57;99388.53;12691112;23;20013;-63
2023/02/25 11:16:41;;;;;;;7.18;2.30;;;;;;;8.06;55.36;99399.47;12759761;23;20068;-63
2023/02/25 11:21:43;;;;;;;3.50;0.77;;;;;;;7.43;59.07;99420.25;12759710;23;20033;-64
2023/02/25 11:26:48;;;;;;;7.75;1.40;;;;;;;6.61;62.11;99455.44;12721626;23;20029;-62
2023/02/25 11:31:54;;;;;;;3.22;1.40;;;;;;;6.29;62.06;99450.00;12746128;23;20478;-59
2023/02/25 11:37:34;;;;;;;3.25;0.40;;;;;;;5.93;62.56;99441.56;12729484;23;20406;-60
2023/02/25 11:42:36;;;;;;;0.60;0.38;;;;;;;5.96;63.17;99425.22;12699621;23;20024;-62
2023/02/25 11:47:38;;;;;;;4.30;0.60;;;;;;;6.18;62.72;99413.03;12697408;23;20010;-62
2023/02/25 11:52:45;;;;;;;0.95;0.30;;;;;;;6.37;64.35;99411.78;12718230;23;20033;-61
2023/02/25 11:58:14;;;;;;;1.13;0.15;;;;;;;6.79;63.42;99405.25;12711139;23;20026;-62
2023/02/25 12:03:38;;;;;;;1.63;0.20;;;;;;;7.23;63.44;99398.50;12693533;23;20398;-62
2023/02/25 12:09:24;;;;;;;1.13;0.35;;;;;;;7.59;62.30;99392.53;12683789;23;20026;-61
2023/02/25 12:14:58;;;;;;;1.48;0.20;;;;;;;7.97;60.79;99390.66;12750009;23;20035;-64
2023/02/25 12:20:05;;;;;;;1.15;0.30;;;;;;;8.23;60.32;99389.38;12775986;23;20005;-63
2023/02/25 12:25:48;;;;;;;1.35;0.30;;;;;;;8.31;59.25;99381.25;12777599;23;20025;-63
2023/02/25 12:31:21;;;;;;;3.20;0.38;;;;;;;8.43;58.64;99379.84;12595740;23;20074;-62
2023/02/25 12:36:59;;;;;;;2.70;0.30;;;;;;;8.83;58.12;99384.84;12722923;23;20001;-62
2023/02/25 12:42:20;;;;;;;0.95;0.20;;;;;;;9.08;57.19;99378.13;12778099;23;20065;-62
2023/02/25 12:47:21;;;;;;;2.85;0.40;;;;;;;8.95;57.28;99387.88;12776895;23;20057;-65
2023/02/25 12:52:46;;;;;;;1.92;0.30;;;;;;;8.80;55.72;99383.34;12768739;23;20065;-65
2023/02/25 12:58:18;;;;;;;2.88;0.35;;;;;;;8.73;53.83;99385.97;12742514;23;20049;-63
2023/02/25 13:03:33;;;;;;;1.33;0.28;;;;;;;8.85;53.47;99375.59;12768607;23;20061;-62
2023/02/25 13:08:40;;;;;;;0.73;0.20;;;;;;;8.86;53.39;99360.34;12773942;23;20049;-63
2023/02/25 13:13:56;;;;;;;3.08;0.20;;;;;;;8.83;53.18;99372.28;12774566;23;20013;-64
2023/02/25 13:19:35;;;;;;;3.65;0.25;;;;;;;8.85;52.68;99359.50;12774038;23;20009;-64
2023/02/25 13:24:43;;;;;;;;;;;;;;;9.12;53.30;99362.47;12755181;23;20029;-66
2023/02/25 13:30:04;;;;;;;0.47;0.20;;;;;;;9.38;52.54;99374.47;12816205;23;19904;-64
2023/02/25 13:35:31;;;;;;;1.58;0.20;;;;;;;9.56;52.38;99379.34;12879380;23;20008;-65
2023/02/25 13:40:47;;;;;;;2.13;0.28;;;;;;;9.98;51.88;99394.56;12881309;23;20012;-66
2023/02/25 14:02:20;;;;;;;5.20;0.80;;;;;;;9.02;53.17;99434.31;12703365;23;20033;-90
2023/02/25 14:07:28;;;;;;;1.77;0.30;;;;;;;8.31;54.94;99448.19;12660831;23;20009;-91
2023/02/25 14:13:08;;;;;;;0.50;0.20;;;;;;;7.56;57.23;99457.91;12673034;23;20002;-90
2023/02/25 14:18:20;;;;;;;2.65;0.35;;;;;;;7.15;57.35;99469.72;12672617;23;20494;-89
2023/02/25 14:23:48;;;;;;;4.88;0.57;;;;;;;6.93;57.90;99476.66;12662032;23;20037;-89
2023/02/25 14:29:10;;;;;;;4.93;0.30;;;;;;;6.88;58.84;99480.88;12687519;23;20018;-91
2023/02/25 14:34:45;;;;;;;4.32;0.40;;;;;;;6.81;58.59;99485.22;12636208;23;20030;-89
2023/02/25 14:40:04;;;;;;;4.47;0.77;;;;;;;6.80;58.18;99491.59;12630864;23;20447;-91
2023/02/25 14:45:27;;;;;;;2.40;0.50;;;;;;;7.19;57.79;99488.03;12659909;23;20041;-92
2023/02/25 14:50:38;;;;;;;1.83;0.32;;;;;;;7.63;58.15;99487.47;12700018;23;20026;-91
2023/02/25 14:56:18;;;;;;;3.30;0.70;;;;;;;8.08;57.29;99475.06;12675778;23;20018;-92
2023/02/25 15:01:54;;;;;;;1.42;0.65;;;;;;;8.34;56.84;99480.81;12669585;23;20029;-92
2023/02/25 15:07:27;;;;;;;2.72;0.47;;;;;;;8.34;55.36;99483.47;12661484;23;20064;-89
2023/02/25 15:18:14;;;;;;;2.20;0.40;;;;;;;8.16;52.19;99493.72;12620338;23;20020;-92
2023/02/25 17:38:06;;;;;;;1.83;0.30;;;;;;;5.52;44.13;99772.91;12807281;22;2186266;-92
2023/02/25 17:43:23;;;;;;;0.90;0.22;;;;;;;5.45;43.81;99782.56;12765253;23;20532;-62
2023/02/25 17:48:28;;;;;;;0.88;0.35;;;;;;;5.46;44.05;99788.72;12750897;23;20024;-60
2023/02/25 17:54:14;;;;;;;2.95;0.88;;;;;;;5.41;43.79;99788.34;12746225;23;20048;-60
2023/02/25 17:59:35;;;;;;;2.05;0.55;;;;;;;5.40;44.22;99800.00;12639387;23;20274;-60
2023/02/25 18:04:40;;;;;;;0.80;0.40;;;;;;;5.32;44.64;99800.78;12797407;23;20032;-63
2023/02/25 18:09:41;;;;;;;1.98;0.60;;;;;;;5.33;44.15;99807.78;12820519;23;20025;-63
2023/02/25 18:14:44;;;;;;;4.00;0.50;;;;;;;5.31;44.36;99817.75;12836574;23;20025;-64
2023/02/25 18:19:46;;;;;;;2.67;0.60;;;;;;;5.20;44.52;99821.50;12808694;23;20017;-60
2023/02/25 18:24:57;;;;;;;3.97;0.75;;;;;;;5.12;45.01;99826.78;12814560;23;20013;-64
2023/02/25 18:30:18;;;;;;;2.10;0.50;;;;;;;4.94;44.90;99832.13;12834880;23;20056;-65
2023/02/25 18:35:20;;;;;;;1.05;0.47;;;;;;;4.88;44.86;99836.22;12814350;23;20052;-61
2023/02/25 18:40:26;;;;;;;3.22;0.60;;;;;;;4.81;45.32;99835.13;12807731;23;20017;-61
2023/02/25 18:45:29;;;;;;;1.73;0.40;;;;;;;4.65;45.78;99846.47;12822649;23;20009;-61
2023/02/25 18:50:32;;;;;;;3.15;0.93;;;;;;;4.61;46.03;99842.44;12823030;23;20051;-59
2023/02/25 18:55:33;;;;;;;1.95;0.50;;;;;;;4.57;46.02;99849.88;12783829;23;20021;-61
2023/02/25 19:00:34;;;;;;;3.10;0.52;;;;;;;4.52;46.21;99854.81;12819738;23;20017;-62
2023/02/25 19:05:36;;;;;;;1.48;0.30;;;;;;;4.43;46.60;99861.03;12824767;23;20047;-61
2023/02/25 19:10:37;;;;;;;0.73;0.22;;;;;;;4.48;46.23;99864.09;12812845;23;20028;-62
2023/02/25 19:15:39;;;;;;;2.40;0.30;;;;;;;4.51;45.88;99863.78;12819260;23;20017;-63
2023/02/25 19:20:42;;;;;;;0.60;0.40;;;;;;;4.48;46.44;99873.88;12831834;23;20048;-62
2023/02/25 19:25:46;;;;;;;1.98;0.80;;;;;;;4.47;46.64;99881.03;12822297;23;20897;-63
2023/02/25 19:30:48;;;;;;;1.33;0.60;;;;;;;4.41;46.49;99886.94;12813017;23;20020;-66
2023/02/25 19:35:49;;;;;;;1.73;0.50;;;;;;;4.39;46.66;99896.91;12816631;23;20032;-61
2023/02/25 19:40:50;;;;;;;3.40;0.75;;;;;;;4.37;46.83;99904.19;12817192;23;20029;-60
2023/02/25 19:45:53;;;;;;;1.75;0.65;;;;;;;4.33;47.31;99916.13;12816256;23;20025;-65
2023/02/25 19:50:54;;;;;;;3.47;0.70;;;;;;;4.34;47.02;99929.28;12813574;23;20090;-63
2023/02/25 19:55:56;;;;;;;0.50;0.30;;;;;;;4.30;47.24;99935.03;12815211;23;20055;-64
2023/02/25 20:01:06;;;;;;;1.55;0.40;;;;;;;4.32;47.17;99933.88;12816011;23;20041;-63
2023/02/25 20:06:09;;;;;;;1.90;0.38;;;;;;;4.29;47.06;99936.84;12819530;23;20633;-61
2023/02/25 20:11:13;;;;;;;1.95;0.70;;;;;;;4.22;47.32;99950.88;12803505;23;20042;-62
2023/02/25 20:16:15;;;;;;;2.05;0.50;;;;;;;4.16;47.09;99955.78;12806227;23;20036;-61
2023/02/25 20:21:17;;;;;;;1.27;0.50;;;;;;;4.18;47.16;99967.13;12801493;23;20025;-64
2023/02/25 20:26:21;;;;;;;3.25;0.88;;;;;;;4.17;47.05;99969.94;12800482;23;20021;-61
2023/02/25 20:31:25;;;;;;;2.35;0.88;;;;;;;4.07;47.17;99969.09;12795538;23;20024;-61
2023/02/25 20:36:36;;;;;;;2.60;0.40;;;;;;;4.03;47.42;99975.69;12812269;23;20021;-65
2023/02/25 20:41:39;;;;;;;3.30;0.90;;;;;;;3.97;47.21;99985.94;12800888;23;20036;-63
2023/02/25 20:46:43;;;;;;;0.90;0.50;;;;;;;3.99;47.51;99991.13;12780214;23;20020;-61
2023/02/25 20:51:46;;;;;;;2.72;0.50;;;;;;;3.91;47.19;99988.31;12796525;23;20028;-60
2023/02/25 20:56:48;;;;;;;2.85;0.90;;;;;;;3.86;47.34;100004.69;12806050;23;20052;-59
2023/02/25 21:01:50;;;;;;;1.45;0.45;;;;;;;3.85;47.36;100013.66;12802891;23;20088;-62
2023/02/25 21:06:51;;;;;;;1.75;0.60;;;;;;;3.88;47.40;100013.38;12797597;23;20088;-65
2023/02/25 21:11:53;;;;;;;3.60;0.82;;;;;;;3.84;47.50;100022.63;12800943;23;20025;-63
2023/02/25 21:16:55;;;;;;;2.05;1.88;;;;;;;3.83;47.82;100022.75;12801140;23;20059;-63
2023/02/25 21:21:57;;;;;;;2.75;1.05;;;;;;;3.84;47.52;100035.06;12802060;23;20056;-62
2023/02/25 21:27:00;;;;;;;1.58;0.65;;;;;;;3.88;47.55;100029.31;12797737;23;20029;-60
2023/02/25 21:32:01;;;;;;;5.18;1.27;;;;;;;3.76;47.44;100038.44;12793418;23;20452;-62
2023/02/25 21:37:03;;;;;;;6.15;1.13;;;;;;;3.72;47.64;100037.88;12796173;23;20032;-60
2023/02/25 21:42:04;;;;;;;4.38;0.80;;;;;;;3.67;47.56;100040.09;12769118;23;20045;-61
2023/02/25 21:47:06;;;;;;;5.57;1.33;;;;;;;3.62;47.64;100047.66;12805124;23;20035;-63
2023/02/25 21:52:07;;;;;;;5.15;1.08;;;;;;;3.60;47.63;100056.75;12773686;23;20021;-60
2023/02/25 21:57:08;;;;;;;1.02;0.75;;;;;;;3.60;47.76;100060.25;12799200;23;20076;-64
2023/02/25 22:02:10;;;;;;;6.32;1.90;;;;;;;3.52;48.18;100052.97;12803019;23;20405;-59
2023/02/25 22:07:11;;;;;;;1.50;0.60;;;;;;;3.42;48.35;100052.09;12803657;23;20021;-60
2023/02/25 22:12:13;;;;;;;1.38;0.50;;;;;;;3.34;48.54;100052.78;12802752;23;20068;-65
2023/02/25 22:17:14;;;;;;;3.30;0.70;;;;;;;3.24;48.28;100051.94;12820351;23;20049;-64
2023/02/25 22:22:15;;;;;;;1.52;0.60;;;;;;;3.14;48.49;100051.03;12839393;23;20015;-64
2023/02/25 22:27:17;;;;;;;1.45;0.60;;;;;;;3.05;48.37;100052.72;12853520;23;20060;-62
2023/02/25 22:32:19;;;;;;;3.13;0.75;;;;;;;3.01;48.99;100050.47;12847336;23;20085;-66
2023/02/25 22:37:20;;;;;;;2.22;0.50;;;;;;;2.93;49.29;100051.13;12846156;23;20001;-64
2023/02/25 22:42:22;;;;;;;1.33;0.43;;;;;;;2.81;49.03;100050.41;12845685;23;20060;-65
2023/02/25 22:47:24;;;;;;;2.92;0.60;;;;;;;2.81;49.65;100060.19;12846049;23;20024;-63
2023/02/25 22:52:25;;;;;;;2.42;0.50;;;;;;;2.75;49.39;100064.19;12846255;23;20025;-65
2023/02/25 22:57:26;;;;;;;6.38;0.90;;;;;;;2.77;49.77;100067.56;12846402;23;20012;-66
2023/02/25 23:02:28;;;;;;;1.95;0.60;;;;;;;2.78;49.63;100072.75;12846947;23;20040;-66
2023/02/25 23:07:29;;;;;;;4.03;0.70;;;;;;;2.78;50.20;100074.53;12812870;23;20076;-65
2023/02/25 23:12:31;;;;;;;0.85;0.50;;;;;;;2.88;50.45;100077.22;12836749;23;20054;-63
2023/02/25 23:17:32;;;;;;;4.60;0.50;;;;;;;2.82;49.85;100080.41;12837513;23;20101;-65
2023/02/25 23:22:33;;;;;;;3.03;0.60;;;;;;;2.71;50.34;100090.16;12837308;23;20005;-64
2023/02/25 23:27:35;;;;;;;2.53;0.40;;;;;;;2.85;50.63;100088.13;12821824;23;20017;-64
2023/02/25 23:32:39;;;;;;;2.47;0.60;;;;;;;2.94;50.60;100092.63;12816494;23;20051;-66
2023/02/25 23:37:41;;;;;;;1.73;0.60;;;;;;;2.96;50.54;100088.88;12813522;23;20058;-62
2023/02/25 23:42:43;;;;;;;2.10;0.45;;;;;;;3.08;50.85;100089.63;12820042;23;20009;-65
2023/02/25 23:47:44;;;;;;;3.53;0.70;;;;;;;3.32;49.82;100088.44;12814357;23;20049;-64
2023/02/25 23:52:45;;;;;;;2.78;0.50;;;;;;;3.42;49.77;100089.31;12841862;23;20112;-65
2023/02/25 23:57:47;;;;;;;4.43;0.68;;;;;;;3.43;50.33;100084.81;12814397;23;20088;-63
